sensor_id;sensor_type;location;lat;lon;timestamp;temperature;humidity
32728;DHT22;55292;51.844;19.246;2022-09-02T00:02:34;12.00;99.90
32728;DHT22;55292;51.844;19.246;2022-09-02T00:07:37;11.90;99.90
32728;DHT22;55292;51.844;19.246;2022-09-02T00:12:40;11.90;99.90
32728;DHT22;55292;51.844;19.246;2022-09-02T00:17:42;12.00;99.90
32728;DHT22;55292;51.844;19.246;2022-09-02T00:22:45;11.90;99.90
32728;DHT22;55292;51.844;19.246;2022-09-02T00:27:48;11.70;99.90
32728;DHT22;55292;51.844;19.246;2022-09-02T00:32:51;11.50;99.90
32728;DHT22;55292;51.844;19.246;2022-09-02T00:37:53;11.40;99.90
32728;DHT22;55292;51.844;19.246;2022-09-02T00:42:56;11.60;99.90
32728;DHT22;55292;51.844;19.246;2022-09-02T00:47:58;11.80;99.90
32728;DHT22;55292;51.844;19.246;2022-09-02T00:53:09;11.70;99.90
32728;DHT22;55292;51.844;19.246;2022-09-02T00:58:20;11.50;99.90
32728;DHT22;55292;51.844;19.246;2022-09-02T01:03:26;11.20;99.90
32728;DHT22;55292;51.844;19.246;2022-09-02T01:08:32;11.10;99.90
32728;DHT22;55292;51.844;19.246;2022-09-02T01:13:39;10.80;99.90
32728;DHT22;55292;51.844;19.246;2022-09-02T01:18:46;10.80;99.90
32728;DHT22;55292;51.844;19.246;2022-09-02T01:23:52;10.60;99.90
32728;DHT22;55292;51.844;19.246;2022-09-02T01:28:55;10.50;99.90
32728;DHT22;55292;51.844;19.246;2022-09-02T01:33:57;10.40;99.90
32728;DHT22;55292;51.844;19.246;2022-09-02T01:39:00;10.30;99.90
32728;DHT22;55292;51.844;19.246;2022-09-02T01:44:04;10.20;99.90
32728;DHT22;55292;51.844;19.246;2022-09-02T01:49:08;9.90;99.90
32728;DHT22;55292;51.844;19.246;2022-09-02T01:54:11;9.80;99.90
32728;DHT22;55292;51.844;19.246;2022-09-02T01:59:13;9.70;99.90
32728;DHT22;55292;51.844;19.246;2022-09-02T02:04:19;9.80;99.90
32728;DHT22;55292;51.844;19.246;2022-09-02T02:09:25;9.60;99.90
32728;DHT22;55292;51.844;19.246;2022-09-02T02:14:29;9.50;99.90
32728;DHT22;55292;51.844;19.246;2022-09-02T02:19:34;9.30;99.90
32728;DHT22;55292;51.844;19.246;2022-09-02T02:24:37;9.20;99.90
32728;DHT22;55292;51.844;19.246;2022-09-02T02:29:40;9.20;99.90
32728;DHT22;55292;51.844;19.246;2022-09-02T02:34:44;9.30;99.90
32728;DHT22;55292;51.844;19.246;2022-09-02T02:39:47;9.20;99.90
32728;DHT22;55292;51.844;19.246;2022-09-02T02:44:50;8.80;99.90
32728;DHT22;55292;51.844;19.246;2022-09-02T02:49:53;9.00;99.90
32728;DHT22;55292;51.844;19.246;2022-09-02T02:54:56;8.90;99.90
32728;DHT22;55292;51.844;19.246;2022-09-02T03:00:12;8.80;99.90
32728;DHT22;55292;51.844;19.246;2022-09-02T03:05:16;8.80;99.90
32728;DHT22;55292;51.844;19.246;2022-09-02T03:10:21;8.70;99.90
32728;DHT22;55292;51.844;19.246;2022-09-02T03:15:25;8.70;99.90
32728;DHT22;55292;51.844;19.246;2022-09-02T03:20:29;8.60;99.90
32728;DHT22;55292;51.844;19.246;2022-09-02T03:25:36;8.60;99.90
32728;DHT22;55292;51.844;19.246;2022-09-02T03:30:49;8.50;99.90
32728;DHT22;55292;51.844;19.246;2022-09-02T03:35:52;8.40;99.90
32728;DHT22;55292;51.844;19.246;2022-09-02T03:40:55;8.50;99.90
32728;DHT22;55292;51.844;19.246;2022-09-02T03:45:59;8.40;99.90
32728;DHT22;55292;51.844;19.246;2022-09-02T03:51:02;8.20;99.90
32728;DHT22;55292;51.844;19.246;2022-09-02T03:56:10;8.10;99.90
32728;DHT22;55292;51.844;19.246;2022-09-02T04:01:20;8.00;99.90
32728;DHT22;55292;51.844;19.246;2022-09-02T04:06:23;7.80;99.90
32728;DHT22;55292;51.844;19.246;2022-09-02T04:11:32;7.70;99.90
32728;DHT22;55292;51.844;19.246;2022-09-02T04:16:35;8.10;99.90
32728;DHT22;55292;51.844;19.246;2022-09-02T04:21:41;8.80;99.90
32728;DHT22;55292;51.844;19.246;2022-09-02T04:26:45;9.30;99.90
32728;DHT22;55292;51.844;19.246;2022-09-02T04:31:51;9.70;99.90
32728;DHT22;55292;51.844;19.246;2022-09-02T04:36:54;10.20;99.90
32728;DHT22;55292;51.844;19.246;2022-09-02T04:41:57;10.50;99.90
32728;DHT22;55292;51.844;19.246;2022-09-02T04:47:00;11.00;99.90
32728;DHT22;55292;51.844;19.246;2022-09-02T04:52:03;11.60;99.90
32728;DHT22;55292;51.844;19.246;2022-09-02T04:57:07;12.10;99.90
32728;DHT22;55292;51.844;19.246;2022-09-02T05:02:12;12.70;99.90
32728;DHT22;55292;51.844;19.246;2022-09-02T05:07:15;13.10;99.90
32728;DHT22;55292;51.844;19.246;2022-09-02T05:12:21;13.50;99.90
32728;DHT22;55292;51.844;19.246;2022-09-02T05:17:29;13.70;99.90
32728;DHT22;55292;51.844;19.246;2022-09-02T05:22:37;13.80;99.90
32728;DHT22;55292;51.844;19.246;2022-09-02T05:27:41;13.80;99.90
32728;DHT22;55292;51.844;19.246;2022-09-02T05:32:44;13.30;99.90
32728;DHT22;55292;51.844;19.246;2022-09-02T05:37:49;12.50;99.90
32728;DHT22;55292;51.844;19.246;2022-09-02T05:42:51;12.50;99.90
32728;DHT22;55292;51.844;19.246;2022-09-02T05:47:54;12.40;99.90
32728;DHT22;55292;51.844;19.246;2022-09-02T05:53:00;12.50;99.90
32728;DHT22;55292;51.844;19.246;2022-09-02T05:58:04;12.70;99.90
32728;DHT22;55292;51.844;19.246;2022-09-02T06:03:07;12.90;99.90
32728;DHT22;55292;51.844;19.246;2022-09-02T06:08:12;13.10;99.90
32728;DHT22;55292;51.844;19.246;2022-09-02T06:13:16;13.30;99.90
32728;DHT22;55292;51.844;19.246;2022-09-02T06:18:26;13.60;99.90
32728;DHT22;55292;51.844;19.246;2022-09-02T06:23:34;13.70;99.90
32728;DHT22;55292;51.844;19.246;2022-09-02T06:28:37;13.90;99.90
32728;DHT22;55292;51.844;19.246;2022-09-02T06:33:41;14.00;99.90
32728;DHT22;55292;51.844;19.246;2022-09-02T06:38:49;14.10;99.90
32728;DHT22;55292;51.844;19.246;2022-09-02T06:43:54;14.40;99.90
32728;DHT22;55292;51.844;19.246;2022-09-02T06:49:01;14.60;99.90
32728;DHT22;55292;51.844;19.246;2022-09-02T06:54:06;14.80;99.90
32728;DHT22;55292;51.844;19.246;2022-09-02T06:59:12;15.00;99.90
32728;DHT22;55292;51.844;19.246;2022-09-02T07:04:22;15.20;99.90
32728;DHT22;55292;51.844;19.246;2022-09-02T07:09:45;15.30;99.90
32728;DHT22;55292;51.844;19.246;2022-09-02T07:14:51;15.40;99.90
32728;DHT22;55292;51.844;19.246;2022-09-02T07:19:58;15.70;99.90
32728;DHT22;55292;51.844;19.246;2022-09-02T07:25:06;15.90;99.90
32728;DHT22;55292;51.844;19.246;2022-09-02T07:30:12;16.00;99.90
32728;DHT22;55292;51.844;19.246;2022-09-02T07:35:19;16.10;99.90
32728;DHT22;55292;51.844;19.246;2022-09-02T07:40:22;16.10;99.90
32728;DHT22;55292;51.844;19.246;2022-09-02T07:45:27;16.20;99.90
32728;DHT22;55292;51.844;19.246;2022-09-02T07:50:29;16.20;99.90
32728;DHT22;55292;51.844;19.246;2022-09-02T07:55:36;16.30;99.90
32728;DHT22;55292;51.844;19.246;2022-09-02T08:00:41;16.30;99.90
32728;DHT22;55292;51.844;19.246;2022-09-02T08:05:45;16.40;99.90
32728;DHT22;55292;51.844;19.246;2022-09-02T08:10:49;16.60;99.90
32728;DHT22;55292;51.844;19.246;2022-09-02T08:15:52;16.60;99.90
32728;DHT22;55292;51.844;19.246;2022-09-02T08:20:55;16.70;99.90
32728;DHT22;55292;51.844;19.246;2022-09-02T08:26:01;16.70;99.90
32728;DHT22;55292;51.844;19.246;2022-09-02T08:31:06;16.70;99.90
32728;DHT22;55292;51.844;19.246;2022-09-02T08:36:09;17.10;99.90
32728;DHT22;55292;51.844;19.246;2022-09-02T08:41:23;17.10;99.90
32728;DHT22;55292;51.844;19.246;2022-09-02T08:46:27;17.20;99.90
32728;DHT22;55292;51.844;19.246;2022-09-02T08:51:52;16.80;99.90
32728;DHT22;55292;51.844;19.246;2022-09-02T08:57:02;17.10;99.90
32728;DHT22;55292;51.844;19.246;2022-09-02T09:18:47;17.50;99.90
32728;DHT22;55292;51.844;19.246;2022-09-02T09:23:54;17.70;99.90
32728;DHT22;55292;51.844;19.246;2022-09-02T09:28:56;18.00;99.90
32728;DHT22;55292;51.844;19.246;2022-09-02T09:34:06;17.70;99.50
32728;DHT22;55292;51.844;19.246;2022-09-02T09:39:25;17.30;99.70
32728;DHT22;55292;51.844;19.246;2022-09-02T09:44:45;18.10;99.00
32728;DHT22;55292;51.844;19.246;2022-09-02T09:49:51;18.60;98.00
32728;DHT22;55292;51.844;19.246;2022-09-02T09:55:17;19.20;99.80
32728;DHT22;55292;51.844;19.246;2022-09-02T10:00:32;19.70;96.80
32728;DHT22;55292;51.844;19.246;2022-09-02T10:05:38;19.70;97.30
32728;DHT22;55292;51.844;19.246;2022-09-02T10:26:53;19.00;95.90
32728;DHT22;55292;51.844;19.246;2022-09-02T10:37:20;17.80;96.10
32728;DHT22;55292;51.844;19.246;2022-09-02T10:48:15;19.00;96.40
32728;DHT22;55292;51.844;19.246;2022-09-02T10:53:32;18.70;95.50
32728;DHT22;55292;51.844;19.246;2022-09-02T10:58:46;18.20;95.00
32728;DHT22;55292;51.844;19.246;2022-09-02T11:04:13;18.00;94.60
32728;DHT22;55292;51.844;19.246;2022-09-02T11:14:52;18.80;93.40
32728;DHT22;55292;51.844;19.246;2022-09-02T11:20:35;19.00;94.80
32728;DHT22;55292;51.844;19.246;2022-09-02T11:31:09;19.00;93.60
32728;DHT22;55292;51.844;19.246;2022-09-02T11:36:13;18.70;94.90
32728;DHT22;55292;51.844;19.246;2022-09-02T11:41:47;19.10;94.70
32728;DHT22;55292;51.844;19.246;2022-09-02T11:52:50;18.90;93.50
32728;DHT22;55292;51.844;19.246;2022-09-02T11:57:56;19.30;94.00
32728;DHT22;55292;51.844;19.246;2022-09-02T12:13:42;19.90;89.60
32728;DHT22;55292;51.844;19.246;2022-09-02T12:44:58;19.60;89.00
32728;DHT22;55292;51.844;19.246;2022-09-02T12:50:19;18.70;91.90
32728;DHT22;55292;51.844;19.246;2022-09-02T12:55:28;18.50;92.00
32728;DHT22;55292;51.844;19.246;2022-09-02T13:05:57;19.00;90.40
32728;DHT22;55292;51.844;19.246;2022-09-02T13:26:35;18.00;92.70
32728;DHT22;55292;51.844;19.246;2022-09-02T13:31:59;18.00;93.00
32728;DHT22;55292;51.844;19.246;2022-09-02T13:37:02;18.60;91.50
32728;DHT22;55292;51.844;19.246;2022-09-02T13:42:16;18.80;91.90
32728;DHT22;55292;51.844;19.246;2022-09-02T13:47:24;18.70;91.40
32728;DHT22;55292;51.844;19.246;2022-09-02T13:52:27;18.90;91.30
32728;DHT22;55292;51.844;19.246;2022-09-02T14:03:12;19.00;90.80
32728;DHT22;55292;51.844;19.246;2022-09-02T14:08:22;18.90;90.30
32728;DHT22;55292;51.844;19.246;2022-09-02T14:13:28;18.90;90.30
32728;DHT22;55292;51.844;19.246;2022-09-02T14:18:30;19.00;89.70
32728;DHT22;55292;51.844;19.246;2022-09-02T14:23:35;19.00;89.40
32728;DHT22;55292;51.844;19.246;2022-09-02T14:28:39;18.90;90.40
32728;DHT22;55292;51.844;19.246;2022-09-02T14:33:44;19.00;89.20
32728;DHT22;55292;51.844;19.246;2022-09-02T14:43:58;19.10;89.40
32728;DHT22;55292;51.844;19.246;2022-09-02T14:49:08;19.10;89.70
32728;DHT22;55292;51.844;19.246;2022-09-02T14:54:41;18.70;90.30
32728;DHT22;55292;51.844;19.246;2022-09-02T14:59:44;18.90;90.30
32728;DHT22;55292;51.844;19.246;2022-09-02T15:04:46;18.50;90.20
32728;DHT22;55292;51.844;19.246;2022-09-02T15:09:50;18.20;90.00
32728;DHT22;55292;51.844;19.246;2022-09-02T15:14:54;18.30;90.80
32728;DHT22;55292;51.844;19.246;2022-09-02T15:19:57;18.30;90.40
32728;DHT22;55292;51.844;19.246;2022-09-02T15:25:00;18.30;90.80
32728;DHT22;55292;51.844;19.246;2022-09-02T15:30:04;18.10;90.80
32728;DHT22;55292;51.844;19.246;2022-09-02T15:35:07;18.10;91.20
32728;DHT22;55292;51.844;19.246;2022-09-02T15:40:10;18.10;90.10
32728;DHT22;55292;51.844;19.246;2022-09-02T15:45:12;18.10;90.00
32728;DHT22;55292;51.844;19.246;2022-09-02T15:50:16;18.10;90.70
32728;DHT22;55292;51.844;19.246;2022-09-02T15:55:21;18.10;90.70
32728;DHT22;55292;51.844;19.246;2022-09-02T16:00:30;18.00;90.50
32728;DHT22;55292;51.844;19.246;2022-09-02T16:05:36;18.00;90.50
32728;DHT22;55292;51.844;19.246;2022-09-02T16:10:39;19.90;90.50
32728;DHT22;55292;51.844;19.246;2022-09-02T16:15:42;16.30;90.20
32728;DHT22;55292;51.844;19.246;2022-09-02T16:20:46;17.60;90.60
32728;DHT22;55292;51.844;19.246;2022-09-02T16:26:12;17.60;90.60
32728;DHT22;55292;51.844;19.246;2022-09-02T16:31:18;17.40;90.80
32728;DHT22;55292;51.844;19.246;2022-09-02T16:36:23;17.20;91.50
32728;DHT22;55292;51.844;19.246;2022-09-02T16:41:32;17.00;91.70
32728;DHT22;55292;51.844;19.246;2022-09-02T16:46:38;16.90;91.60
32728;DHT22;55292;51.844;19.246;2022-09-02T16:51:41;16.90;91.50
32728;DHT22;55292;51.844;19.246;2022-09-02T16:56:44;16.60;91.80
32728;DHT22;55292;51.844;19.246;2022-09-02T17:01:47;16.40;92.30
32728;DHT22;55292;51.844;19.246;2022-09-02T17:06:49;16.10;92.80
32728;DHT22;55292;51.844;19.246;2022-09-02T17:11:52;15.70;93.40
32728;DHT22;55292;51.844;19.246;2022-09-02T17:16:55;15.40;93.80
32728;DHT22;55292;51.844;19.246;2022-09-02T17:21:58;15.10;94.30
32728;DHT22;55292;51.844;19.246;2022-09-02T17:27:01;14.80;94.70
32728;DHT22;55292;51.844;19.246;2022-09-02T17:32:04;14.50;95.20
32728;DHT22;55292;51.844;19.246;2022-09-02T17:37:07;14.30;95.80
32728;DHT22;55292;51.844;19.246;2022-09-02T17:42:11;14.00;96.10
32728;DHT22;55292;51.844;19.246;2022-09-02T17:47:17;13.50;96.90
32728;DHT22;55292;51.844;19.246;2022-09-02T17:52:23;13.20;97.90
32728;DHT22;55292;51.844;19.246;2022-09-02T17:57:35;12.60;99.20
32728;DHT22;55292;51.844;19.246;2022-09-02T18:08:44;11.50;99.90
32728;DHT22;55292;51.844;19.246;2022-09-02T18:13:56;11.10;99.90
32728;DHT22;55292;51.844;19.246;2022-09-02T18:30:06;10.80;99.90
32728;DHT22;55292;51.844;19.246;2022-09-02T18:35:38;10.60;99.90
32728;DHT22;55292;51.844;19.246;2022-09-02T18:40:56;10.50;99.90
32728;DHT22;55292;51.844;19.246;2022-09-02T18:46:02;10.30;99.90
32728;DHT22;55292;51.844;19.246;2022-09-02T18:51:15;10.10;99.90
32728;DHT22;55292;51.844;19.246;2022-09-02T18:56:24;9.90;99.90
32728;DHT22;55292;51.844;19.246;2022-09-02T19:01:31;9.90;99.90
32728;DHT22;55292;51.844;19.246;2022-09-02T19:06:38;9.50;99.90
32728;DHT22;55292;51.844;19.246;2022-09-02T19:11:41;9.00;99.90
32728;DHT22;55292;51.844;19.246;2022-09-02T19:16:44;8.80;99.90
32728;DHT22;55292;51.844;19.246;2022-09-02T19:21:52;9.10;99.90
32728;DHT22;55292;51.844;19.246;2022-09-02T19:27:00;9.10;99.90
32728;DHT22;55292;51.844;19.246;2022-09-02T19:32:03;8.80;99.90
32728;DHT22;55292;51.844;19.246;2022-09-02T19:37:07;9.00;99.90
32728;DHT22;55292;51.844;19.246;2022-09-02T19:42:09;9.40;99.90
32728;DHT22;55292;51.844;19.246;2022-09-02T19:47:12;9.80;99.90
32728;DHT22;55292;51.844;19.246;2022-09-02T19:52:39;10.10;99.90
32728;DHT22;55292;51.844;19.246;2022-09-02T19:57:43;10.20;99.90
32728;DHT22;55292;51.844;19.246;2022-09-02T20:02:47;10.40;99.90
32728;DHT22;55292;51.844;19.246;2022-09-02T20:07:52;10.40;99.90
32728;DHT22;55292;51.844;19.246;2022-09-02T20:12:57;10.50;99.90
32728;DHT22;55292;51.844;19.246;2022-09-02T20:18:11;10.40;99.90
32728;DHT22;55292;51.844;19.246;2022-09-02T20:23:15;10.40;99.90
32728;DHT22;55292;51.844;19.246;2022-09-02T20:28:35;10.50;99.90
32728;DHT22;55292;51.844;19.246;2022-09-02T20:34:00;10.60;99.90
32728;DHT22;55292;51.844;19.246;2022-09-02T20:55:21;10.10;99.90
32728;DHT22;55292;51.844;19.246;2022-09-02T21:00:27;9.90;99.90
32728;DHT22;55292;51.844;19.246;2022-09-02T21:05:49;9.60;99.90
32728;DHT22;55292;51.844;19.246;2022-09-02T21:10:55;9.80;99.90
32728;DHT22;55292;51.844;19.246;2022-09-02T21:16:09;9.90;99.90
32728;DHT22;55292;51.844;19.246;2022-09-02T21:21:21;10.20;99.90
32728;DHT22;55292;51.844;19.246;2022-09-02T21:26:46;10.30;99.90
32728;DHT22;55292;51.844;19.246;2022-09-02T21:32:02;10.20;99.90
32728;DHT22;55292;51.844;19.246;2022-09-02T21:37:07;10.20;99.90
32728;DHT22;55292;51.844;19.246;2022-09-02T22:04:08;10.20;99.90
32728;DHT22;55292;51.844;19.246;2022-09-02T22:09:29;10.30;99.90
32728;DHT22;55292;51.844;19.246;2022-09-02T22:15:13;10.20;99.90
32728;DHT22;55292;51.844;19.246;2022-09-02T22:20:23;10.20;99.90
32728;DHT22;55292;51.844;19.246;2022-09-02T22:25:30;10.20;99.90
32728;DHT22;55292;51.844;19.246;2022-09-02T22:30:39;10.20;99.90
32728;DHT22;55292;51.844;19.246;2022-09-02T22:35:56;10.20;99.90
32728;DHT22;55292;51.844;19.246;2022-09-02T22:41:24;10.20;99.90
32728;DHT22;55292;51.844;19.246;2022-09-02T22:46:43;10.20;99.90
32728;DHT22;55292;51.844;19.246;2022-09-02T22:57:59;10.10;99.90
32728;DHT22;55292;51.844;19.246;2022-09-02T23:03:25;10.10;99.90
32728;DHT22;55292;51.844;19.246;2022-09-02T23:08:30;10.10;99.90
32728;DHT22;55292;51.844;19.246;2022-09-02T23:30:02;10.00;99.90
32728;DHT22;55292;51.844;19.246;2022-09-02T23:45:35;9.70;99.90
